sensor_id;sensor_type;location;lat;lon;timestamp;P1;durP1;ratioP1;P2;durP2;ratioP2
6023;SDS011;3040;42.654;23.296;2023-06-22T00:00:01;8.20;;;6.30;;
6023;SDS011;3040;42.654;23.296;2023-06-22T00:02:33;7.83;;;7.13;;
6023;SDS011;3040;42.654;23.296;2023-06-22T00:05:00;7.80;;;7.30;;
6023;SDS011;3040;42.654;23.296;2023-06-22T00:07:27;7.23;;;6.93;;
6023;SDS011;3040;42.654;23.296;2023-06-22T00:09:53;14.73;;;8.83;;
6023;SDS011;3040;42.654;23.296;2023-06-22T00:12:21;8.87;;;8.47;;
6023;SDS011;3040;42.654;23.296;2023-06-22T00:14:48;9.17;;;8.43;;
6023;SDS011;3040;42.654;23.296;2023-06-22T00:17:15;9.13;;;8.47;;
6023;SDS011;3040;42.654;23.296;2023-06-22T00:19:42;7.97;;;7.57;;
6023;SDS011;3040;42.654;23.296;2023-06-22T00:22:09;8.10;;;7.60;;
6023;SDS011;3040;42.654;23.296;2023-06-22T00:24:35;8.43;;;7.80;;
6023;SDS011;3040;42.654;23.296;2023-06-22T00:27:02;7.83;;;7.43;;
6023;SDS011;3040;42.654;23.296;2023-06-22T00:29:32;8.27;;;7.67;;
6023;SDS011;3040;42.654;23.296;2023-06-22T00:31:59;8.10;;;7.50;;
6023;SDS011;3040;42.654;23.296;2023-06-22T00:34:25;6.47;;;6.07;;
6023;SDS011;3040;42.654;23.296;2023-06-22T00:36:53;6.70;;;6.40;;
6023;SDS011;3040;42.654;23.296;2023-06-22T00:39:20;7.03;;;6.47;;
6023;SDS011;3040;42.654;23.296;2023-06-22T00:41:47;6.97;;;6.67;;
6023;SDS011;3040;42.654;23.296;2023-06-22T00:44:14;7.73;;;7.33;;
6023;SDS011;3040;42.654;23.296;2023-06-22T00:46:42;7.73;;;7.23;;
6023;SDS011;3040;42.654;23.296;2023-06-22T00:49:09;7.60;;;7.10;;
6023;SDS011;3040;42.654;23.296;2023-06-22T00:51:37;7.60;;;7.30;;
6023;SDS011;3040;42.654;23.296;2023-06-22T00:54:10;7.73;;;7.40;;
6023;SDS011;3040;42.654;23.296;2023-06-22T00:56:38;7.33;;;6.93;;
6023;SDS011;3040;42.654;23.296;2023-06-22T00:59:06;10.10;;;6.87;;
6023;SDS011;3040;42.654;23.296;2023-06-22T01:01:33;8.17;;;7.33;;
6023;SDS011;3040;42.654;23.296;2023-06-22T01:04:01;7.00;;;6.50;;
6023;SDS011;3040;42.654;23.296;2023-06-22T01:06:29;7.37;;;6.87;;
6023;SDS011;3040;42.654;23.296;2023-06-22T01:09:06;8.47;;;7.97;;
6023;SDS011;3040;42.654;23.296;2023-06-22T01:11:41;7.60;;;6.90;;
6023;SDS011;3040;42.654;23.296;2023-06-22T01:14:15;6.83;;;6.53;;
6023;SDS011;3040;42.654;23.296;2023-06-22T01:16:49;6.93;;;6.60;;
6023;SDS011;3040;42.654;23.296;2023-06-22T01:19:25;7.63;;;7.33;;
6023;SDS011;3040;42.654;23.296;2023-06-22T01:22:01;7.77;;;7.40;;
6023;SDS011;3040;42.654;23.296;2023-06-22T01:24:30;8.17;;;7.60;;
6023;SDS011;3040;42.654;23.296;2023-06-22T01:27:04;9.20;;;8.43;;
6023;SDS011;3040;42.654;23.296;2023-06-22T01:29:48;8.00;;;7.40;;
6023;SDS011;3040;42.654;23.296;2023-06-22T01:32:18;8.07;;;7.57;;
6023;SDS011;3040;42.654;23.296;2023-06-22T01:34:45;7.30;;;6.70;;
6023;SDS011;3040;42.654;23.296;2023-06-22T01:37:13;7.10;;;6.70;;
6023;SDS011;3040;42.654;23.296;2023-06-22T01:39:41;8.03;;;7.53;;
6023;SDS011;3040;42.654;23.296;2023-06-22T01:42:08;8.07;;;7.40;;
6023;SDS011;3040;42.654;23.296;2023-06-22T01:44:36;8.53;;;7.90;;
6023;SDS011;3040;42.654;23.296;2023-06-22T01:47:05;9.53;;;8.77;;
6023;SDS011;3040;42.654;23.296;2023-06-22T01:49:33;8.63;;;8.03;;
6023;SDS011;3040;42.654;23.296;2023-06-22T01:52:01;8.43;;;8.13;;
6023;SDS011;3040;42.654;23.296;2023-06-22T01:54:27;8.03;;;7.53;;
6023;SDS011;3040;42.654;23.296;2023-06-22T01:56:54;8.10;;;7.70;;
6023;SDS011;3040;42.654;23.296;2023-06-22T01:59:23;8.67;;;7.83;;
6023;SDS011;3040;42.654;23.296;2023-06-22T02:01:54;8.30;;;7.60;;
6023;SDS011;3040;42.654;23.296;2023-06-22T02:04:27;8.00;;;7.50;;
6023;SDS011;3040;42.654;23.296;2023-06-22T02:06:59;8.43;;;7.70;;
6023;SDS011;3040;42.654;23.296;2023-06-22T02:09:31;8.17;;;7.33;;
6023;SDS011;3040;42.654;23.296;2023-06-22T02:12:01;8.40;;;7.83;;
6023;SDS011;3040;42.654;23.296;2023-06-22T02:14:30;10.63;;;8.90;;
6023;SDS011;3040;42.654;23.296;2023-06-22T02:16:57;8.37;;;7.97;;
6023;SDS011;3040;42.654;23.296;2023-06-22T02:19:24;8.03;;;7.53;;
6023;SDS011;3040;42.654;23.296;2023-06-22T02:21:54;8.70;;;8.07;;
6023;SDS011;3040;42.654;23.296;2023-06-22T02:24:21;8.13;;;7.63;;
6023;SDS011;3040;42.654;23.296;2023-06-22T02:26:48;8.80;;;7.90;;
6023;SDS011;3040;42.654;23.296;2023-06-22T02:29:15;13.10;;;8.37;;
6023;SDS011;3040;42.654;23.296;2023-06-22T02:31:42;8.53;;;7.70;;
6023;SDS011;3040;42.654;23.296;2023-06-22T02:34:09;7.87;;;7.23;;
6023;SDS011;3040;42.654;23.296;2023-06-22T02:36:43;9.13;;;7.33;;
6023;SDS011;3040;42.654;23.296;2023-06-22T02:39:17;9.50;;;8.73;;
6023;SDS011;3040;42.654;23.296;2023-06-22T02:41:45;8.90;;;8.13;;
6023;SDS011;3040;42.654;23.296;2023-06-22T02:44:12;8.50;;;7.77;;
6023;SDS011;3040;42.654;23.296;2023-06-22T02:46:40;8.63;;;7.83;;
6023;SDS011;3040;42.654;23.296;2023-06-22T02:49:07;12.80;;;8.40;;
6023;SDS011;3040;42.654;23.296;2023-06-22T02:51:34;9.30;;;7.87;;
6023;SDS011;3040;42.654;23.296;2023-06-22T02:54:01;9.67;;;9.17;;
6023;SDS011;3040;42.654;23.296;2023-06-22T02:56:29;10.17;;;9.17;;
6023;SDS011;3040;42.654;23.296;2023-06-22T02:58:56;8.07;;;7.57;;
6023;SDS011;3040;42.654;23.296;2023-06-22T03:01:26;12.77;;;9.00;;
6023;SDS011;3040;42.654;23.296;2023-06-22T03:03:52;8.53;;;8.03;;
6023;SDS011;3040;42.654;23.296;2023-06-22T03:06:20;8.63;;;7.87;;
6023;SDS011;3040;42.654;23.296;2023-06-22T03:08:48;9.23;;;8.53;;
6023;SDS011;3040;42.654;23.296;2023-06-22T03:11:17;9.30;;;8.40;;
6023;SDS011;3040;42.654;23.296;2023-06-22T03:13:45;14.40;;;9.87;;
6023;SDS011;3040;42.654;23.296;2023-06-22T03:16:12;14.30;;;9.23;;
6023;SDS011;3040;42.654;23.296;2023-06-22T03:18:39;15.63;;;8.97;;
6023;SDS011;3040;42.654;23.296;2023-06-22T03:21:06;10.63;;;9.43;;
6023;SDS011;3040;42.654;23.296;2023-06-22T03:23:32;16.43;;;9.83;;
6023;SDS011;3040;42.654;23.296;2023-06-22T03:25:59;15.97;;;10.00;;
6023;SDS011;3040;42.654;23.296;2023-06-22T03:28:26;11.20;;;8.60;;
6023;SDS011;3040;42.654;23.296;2023-06-22T03:30:56;13.80;;;7.97;;
6023;SDS011;3040;42.654;23.296;2023-06-22T03:33:23;30.13;;;11.00;;
6023;SDS011;3040;42.654;23.296;2023-06-22T03:35:50;9.50;;;8.90;;
6023;SDS011;3040;42.654;23.296;2023-06-22T03:38:17;9.80;;;9.10;;
6023;SDS011;3040;42.654;23.296;2023-06-22T03:40:44;9.63;;;8.77;;
6023;SDS011;3040;42.654;23.296;2023-06-22T03:43:10;11.67;;;9.20;;
6023;SDS011;3040;42.654;23.296;2023-06-22T03:45:37;8.57;;;8.00;;
6023;SDS011;3040;42.654;23.296;2023-06-22T03:48:06;11.33;;;10.03;;
6023;SDS011;3040;42.654;23.296;2023-06-22T03:50:33;9.53;;;8.90;;
6023;SDS011;3040;42.654;23.296;2023-06-22T03:53:00;14.63;;;9.50;;
6023;SDS011;3040;42.654;23.296;2023-06-22T03:55:27;29.47;;;13.03;;
6023;SDS011;3040;42.654;23.296;2023-06-22T03:57:54;11.93;;;10.97;;
6023;SDS011;3040;42.654;23.296;2023-06-22T04:00:22;17.70;;;12.63;;
6023;SDS011;3040;42.654;23.296;2023-06-22T04:02:49;16.20;;;9.27;;
6023;SDS011;3040;42.654;23.296;2023-06-22T04:05:17;33.03;;;10.87;;
6023;SDS011;3040;42.654;23.296;2023-06-22T04:07:44;29.10;;;9.87;;
6023;SDS011;3040;42.654;23.296;2023-06-22T04:10:11;92.77;;;13.13;;
6023;SDS011;3040;42.654;23.296;2023-06-22T04:12:38;22.63;;;9.93;;
6023;SDS011;3040;42.654;23.296;2023-06-22T04:15:05;39.27;;;11.17;;
6023;SDS011;3040;42.654;23.296;2023-06-22T04:17:32;11.37;;;10.67;;
6023;SDS011;3040;42.654;23.296;2023-06-22T04:19:59;11.27;;;10.17;;
6023;SDS011;3040;42.654;23.296;2023-06-22T04:22:27;11.90;;;11.00;;
6023;SDS011;3040;42.654;23.296;2023-06-22T04:24:54;11.87;;;11.03;;
6023;SDS011;3040;42.654;23.296;2023-06-22T04:27:21;12.57;;;10.97;;
6023;SDS011;3040;42.654;23.296;2023-06-22T04:29:48;15.10;;;11.60;;
6023;SDS011;3040;42.654;23.296;2023-06-22T04:32:16;13.23;;;12.07;;
6023;SDS011;3040;42.654;23.296;2023-06-22T04:34:43;18.03;;;13.63;;
6023;SDS011;3040;42.654;23.296;2023-06-22T04:37:10;13.07;;;11.60;;
6023;SDS011;3040;42.654;23.296;2023-06-22T04:39:41;15.87;;;11.90;;
6023;SDS011;3040;42.654;23.296;2023-06-22T04:42:09;14.23;;;12.80;;
6023;SDS011;3040;42.654;23.296;2023-06-22T04:44:35;16.43;;;14.73;;
6023;SDS011;3040;42.654;23.296;2023-06-22T04:47:02;21.57;;;13.13;;
6023;SDS011;3040;42.654;23.296;2023-06-22T04:49:33;14.17;;;12.80;;
6023;SDS011;3040;42.654;23.296;2023-06-22T04:52:03;20.20;;;14.43;;
6023;SDS011;3040;42.654;23.296;2023-06-22T04:54:31;17.67;;;13.17;;
6023;SDS011;3040;42.654;23.296;2023-06-22T04:57:00;13.47;;;12.47;;
6023;SDS011;3040;42.654;23.296;2023-06-22T04:59:27;13.93;;;12.20;;
6023;SDS011;3040;42.654;23.296;2023-06-22T05:01:55;13.20;;;11.93;;
6023;SDS011;3040;42.654;23.296;2023-06-22T05:04:23;13.00;;;11.70;;
6023;SDS011;3040;42.654;23.296;2023-06-22T05:06:50;12.80;;;11.60;;
6023;SDS011;3040;42.654;23.296;2023-06-22T05:09:17;14.40;;;12.93;;
6023;SDS011;3040;42.654;23.296;2023-06-22T05:11:45;14.17;;;12.73;;
6023;SDS011;3040;42.654;23.296;2023-06-22T05:14:13;15.77;;;13.70;;
6023;SDS011;3040;42.654;23.296;2023-06-22T05:16:41;15.00;;;13.87;;
6023;SDS011;3040;42.654;23.296;2023-06-22T05:19:08;14.50;;;13.23;;
6023;SDS011;3040;42.654;23.296;2023-06-22T05:21:36;15.03;;;13.80;;
6023;SDS011;3040;42.654;23.296;2023-06-22T05:24:03;16.73;;;15.30;;
6023;SDS011;3040;42.654;23.296;2023-06-22T05:26:31;16.30;;;14.53;;
6023;SDS011;3040;42.654;23.296;2023-06-22T05:28:59;16.77;;;13.60;;
6023;SDS011;3040;42.654;23.296;2023-06-22T05:31:29;14.80;;;13.70;;
6023;SDS011;3040;42.654;23.296;2023-06-22T05:33:56;13.97;;;12.57;;
6023;SDS011;3040;42.654;23.296;2023-06-22T05:36:23;13.93;;;12.93;;
6023;SDS011;3040;42.654;23.296;2023-06-22T05:38:51;14.90;;;13.70;;
6023;SDS011;3040;42.654;23.296;2023-06-22T05:41:18;33.40;;;14.63;;
6023;SDS011;3040;42.654;23.296;2023-06-22T05:43:45;14.33;;;12.93;;
6023;SDS011;3040;42.654;23.296;2023-06-22T05:46:12;20.27;;;13.23;;
6023;SDS011;3040;42.654;23.296;2023-06-22T05:48:40;15.13;;;13.50;;
6023;SDS011;3040;42.654;23.296;2023-06-22T05:51:07;14.53;;;13.23;;
6023;SDS011;3040;42.654;23.296;2023-06-22T05:53:34;13.77;;;12.57;;
6023;SDS011;3040;42.654;23.296;2023-06-22T05:56:01;14.73;;;13.37;;
6023;SDS011;3040;42.654;23.296;2023-06-22T05:58:27;13.47;;;12.07;;
6023;SDS011;3040;42.654;23.296;2023-06-22T06:00:54;12.10;;;11.30;;
6023;SDS011;3040;42.654;23.296;2023-06-22T06:03:21;13.20;;;12.10;;
6023;SDS011;3040;42.654;23.296;2023-06-22T06:05:49;14.67;;;13.20;;
6023;SDS011;3040;42.654;23.296;2023-06-22T06:08:16;12.83;;;11.77;;
6023;SDS011;3040;42.654;23.296;2023-06-22T06:10:43;12.13;;;11.53;;
6023;SDS011;3040;42.654;23.296;2023-06-22T06:13:10;12.10;;;11.33;;
6023;SDS011;3040;42.654;23.296;2023-06-22T06:15:37;20.00;;;12.70;;
6023;SDS011;3040;42.654;23.296;2023-06-22T06:18:03;14.50;;;13.53;;
6023;SDS011;3040;42.654;23.296;2023-06-22T06:20:31;14.43;;;13.10;;
6023;SDS011;3040;42.654;23.296;2023-06-22T06:22:59;13.73;;;12.50;;
6023;SDS011;3040;42.654;23.296;2023-06-22T06:25:26;12.07;;;11.13;;
6023;SDS011;3040;42.654;23.296;2023-06-22T06:27:53;13.30;;;11.90;;
6023;SDS011;3040;42.654;23.296;2023-06-22T06:30:21;12.70;;;11.80;;
6023;SDS011;3040;42.654;23.296;2023-06-22T06:32:49;13.80;;;12.50;;
6023;SDS011;3040;42.654;23.296;2023-06-22T06:35:16;12.43;;;11.73;;
6023;SDS011;3040;42.654;23.296;2023-06-22T06:37:43;12.67;;;11.53;;
6023;SDS011;3040;42.654;23.296;2023-06-22T06:40:14;13.80;;;12.50;;
6023;SDS011;3040;42.654;23.296;2023-06-22T06:42:42;12.93;;;12.07;;
6023;SDS011;3040;42.654;23.296;2023-06-22T06:45:10;12.47;;;11.57;;
6023;SDS011;3040;42.654;23.296;2023-06-22T06:47:38;12.10;;;10.83;;
6023;SDS011;3040;42.654;23.296;2023-06-22T06:50:05;25.57;;;12.57;;
6023;SDS011;3040;42.654;23.296;2023-06-22T06:52:33;15.37;;;10.70;;
6023;SDS011;3040;42.654;23.296;2023-06-22T06:55:00;12.47;;;11.40;;
6023;SDS011;3040;42.654;23.296;2023-06-22T06:57:29;12.07;;;11.30;;
6023;SDS011;3040;42.654;23.296;2023-06-22T06:59:57;13.53;;;12.43;;
6023;SDS011;3040;42.654;23.296;2023-06-22T07:02:25;12.10;;;11.20;;
6023;SDS011;3040;42.654;23.296;2023-06-22T07:04:52;12.43;;;11.23;;
6023;SDS011;3040;42.654;23.296;2023-06-22T07:07:20;14.70;;;11.87;;
6023;SDS011;3040;42.654;23.296;2023-06-22T07:09:47;12.07;;;11.20;;
6023;SDS011;3040;42.654;23.296;2023-06-22T07:12:14;11.30;;;10.40;;
6023;SDS011;3040;42.654;23.296;2023-06-22T07:14:42;11.37;;;10.63;;
6023;SDS011;3040;42.654;23.296;2023-06-22T07:17:09;20.33;;;11.53;;
6023;SDS011;3040;42.654;23.296;2023-06-22T07:19:36;10.47;;;9.87;;
6023;SDS011;3040;42.654;23.296;2023-06-22T07:22:03;20.03;;;11.60;;
6023;SDS011;3040;42.654;23.296;2023-06-22T07:24:30;11.10;;;10.10;;
6023;SDS011;3040;42.654;23.296;2023-06-22T07:26:57;23.97;;;12.13;;
6023;SDS011;3040;42.654;23.296;2023-06-22T07:29:27;17.43;;;14.50;;
6023;SDS011;3040;42.654;23.296;2023-06-22T07:31:55;12.27;;;10.80;;
6023;SDS011;3040;42.654;23.296;2023-06-22T07:34:22;15.17;;;11.23;;
6023;SDS011;3040;42.654;23.296;2023-06-22T07:36:49;10.67;;;9.83;;
6023;SDS011;3040;42.654;23.296;2023-06-22T07:39:16;10.57;;;9.70;;
6023;SDS011;3040;42.654;23.296;2023-06-22T07:41:43;10.73;;;10.03;;
6023;SDS011;3040;42.654;23.296;2023-06-22T07:44:09;10.40;;;9.77;;
6023;SDS011;3040;42.654;23.296;2023-06-22T07:46:36;11.17;;;10.47;;
6023;SDS011;3040;42.654;23.296;2023-06-22T07:49:04;11.20;;;10.30;;
6023;SDS011;3040;42.654;23.296;2023-06-22T07:51:33;11.13;;;10.20;;
6023;SDS011;3040;42.654;23.296;2023-06-22T07:53:59;10.80;;;10.00;;
6023;SDS011;3040;42.654;23.296;2023-06-22T07:56:26;11.00;;;10.20;;
6023;SDS011;3040;42.654;23.296;2023-06-22T07:58:53;12.30;;;11.30;;
6023;SDS011;3040;42.654;23.296;2023-06-22T08:01:23;16.33;;;11.60;;
6023;SDS011;3040;42.654;23.296;2023-06-22T08:03:50;10.57;;;9.73;;
6023;SDS011;3040;42.654;23.296;2023-06-22T08:06:18;9.87;;;9.37;;
6023;SDS011;3040;42.654;23.296;2023-06-22T08:08:45;8.90;;;8.00;;
6023;SDS011;3040;42.654;23.296;2023-06-22T08:11:14;10.87;;;10.37;;
6023;SDS011;3040;42.654;23.296;2023-06-22T08:13:41;10.67;;;10.13;;
6023;SDS011;3040;42.654;23.296;2023-06-22T08:16:08;10.17;;;9.47;;
6023;SDS011;3040;42.654;23.296;2023-06-22T08:18:35;11.00;;;10.10;;
6023;SDS011;3040;42.654;23.296;2023-06-22T08:21:02;11.00;;;9.93;;
6023;SDS011;3040;42.654;23.296;2023-06-22T08:23:30;18.40;;;11.37;;
6023;SDS011;3040;42.654;23.296;2023-06-22T08:25:57;11.03;;;10.10;;
6023;SDS011;3040;42.654;23.296;2023-06-22T08:28:24;11.03;;;10.27;;
6023;SDS011;3040;42.654;23.296;2023-06-22T08:30:50;12.47;;;9.53;;
6023;SDS011;3040;42.654;23.296;2023-06-22T08:33:17;10.87;;;9.87;;
6023;SDS011;3040;42.654;23.296;2023-06-22T08:35:45;10.80;;;10.20;;
6023;SDS011;3040;42.654;23.296;2023-06-22T08:38:11;12.20;;;11.17;;
6023;SDS011;3040;42.654;23.296;2023-06-22T08:40:42;11.33;;;10.33;;
6023;SDS011;3040;42.654;23.296;2023-06-22T08:43:08;11.17;;;10.43;;
6023;SDS011;3040;42.654;23.296;2023-06-22T08:45:35;11.77;;;10.97;;
6023;SDS011;3040;42.654;23.296;2023-06-22T08:48:02;11.73;;;10.07;;
6023;SDS011;3040;42.654;23.296;2023-06-22T08:50:29;11.27;;;10.67;;
6023;SDS011;3040;42.654;23.296;2023-06-22T08:52:56;10.47;;;9.73;;
6023;SDS011;3040;42.654;23.296;2023-06-22T08:55:22;13.63;;;10.13;;
6023;SDS011;3040;42.654;23.296;2023-06-22T08:57:50;10.63;;;9.63;;
6023;SDS011;3040;42.654;23.296;2023-06-22T09:00:18;9.37;;;8.93;;
6023;SDS011;3040;42.654;23.296;2023-06-22T09:02:45;8.60;;;8.07;;
6023;SDS011;3040;42.654;23.296;2023-06-22T09:05:13;9.97;;;9.03;;
6023;SDS011;3040;42.654;23.296;2023-06-22T09:07:40;9.97;;;9.00;;
6023;SDS011;3040;42.654;23.296;2023-06-22T09:10:07;10.37;;;9.60;;
6023;SDS011;3040;42.654;23.296;2023-06-22T09:12:34;9.53;;;8.77;;
6023;SDS011;3040;42.654;23.296;2023-06-22T09:15:04;8.80;;;8.30;;
6023;SDS011;3040;42.654;23.296;2023-06-22T09:17:32;9.17;;;8.77;;
6023;SDS011;3040;42.654;23.296;2023-06-22T09:20:00;8.77;;;8.27;;
6023;SDS011;3040;42.654;23.296;2023-06-22T09:22:29;9.50;;;8.80;;
6023;SDS011;3040;42.654;23.296;2023-06-22T09:24:55;9.07;;;8.67;;
6023;SDS011;3040;42.654;23.296;2023-06-22T09:27:22;10.23;;;7.90;;
6023;SDS011;3040;42.654;23.296;2023-06-22T09:29:49;8.53;;;8.23;;
6023;SDS011;3040;42.654;23.296;2023-06-22T09:32:17;9.07;;;8.50;;
6023;SDS011;3040;42.654;23.296;2023-06-22T09:34:44;7.60;;;7.27;;
6023;SDS011;3040;42.654;23.296;2023-06-22T09:37:11;8.40;;;7.80;;
6023;SDS011;3040;42.654;23.296;2023-06-22T09:39:39;8.70;;;8.23;;
6023;SDS011;3040;42.654;23.296;2023-06-22T09:42:06;8.40;;;7.77;;
6023;SDS011;3040;42.654;23.296;2023-06-22T09:44:33;7.97;;;7.53;;
6023;SDS011;3040;42.654;23.296;2023-06-22T09:47:00;7.93;;;7.57;;
6023;SDS011;3040;42.654;23.296;2023-06-22T09:49:28;8.13;;;7.43;;
6023;SDS011;3040;42.654;23.296;2023-06-22T09:51:55;8.00;;;7.50;;
6023;SDS011;3040;42.654;23.296;2023-06-22T09:54:22;7.57;;;7.27;;
6023;SDS011;3040;42.654;23.296;2023-06-22T09:56:49;7.80;;;7.43;;
6023;SDS011;3040;42.654;23.296;2023-06-22T09:59:16;8.50;;;8.10;;
6023;SDS011;3040;42.654;23.296;2023-06-22T10:01:43;8.27;;;7.87;;
6023;SDS011;3040;42.654;23.296;2023-06-22T10:04:10;7.87;;;7.60;;
6023;SDS011;3040;42.654;23.296;2023-06-22T10:06:38;8.77;;;8.03;;
6023;SDS011;3040;42.654;23.296;2023-06-22T10:09:06;8.37;;;7.97;;
6023;SDS011;3040;42.654;23.296;2023-06-22T10:11:33;8.07;;;7.57;;
6023;SDS011;3040;42.654;23.296;2023-06-22T10:14:00;8.37;;;7.87;;
6023;SDS011;3040;42.654;23.296;2023-06-22T10:16:30;6.97;;;6.67;;
6023;SDS011;3040;42.654;23.296;2023-06-22T10:18:57;7.63;;;7.23;;
6023;SDS011;3040;42.654;23.296;2023-06-22T10:21:24;6.93;;;6.67;;
6023;SDS011;3040;42.654;23.296;2023-06-22T10:23:53;8.13;;;7.80;;
6023;SDS011;3040;42.654;23.296;2023-06-22T10:26:20;8.37;;;7.93;;
6023;SDS011;3040;42.654;23.296;2023-06-22T10:28:47;7.97;;;7.60;;
6023;SDS011;3040;42.654;23.296;2023-06-22T10:31:14;8.37;;;7.87;;
6023;SDS011;3040;42.654;23.296;2023-06-22T10:33:41;8.77;;;8.40;;
6023;SDS011;3040;42.654;23.296;2023-06-22T10:36:09;8.43;;;7.83;;
6023;SDS011;3040;42.654;23.296;2023-06-22T10:38:36;7.93;;;7.63;;
6023;SDS011;3040;42.654;23.296;2023-06-22T10:41:04;7.07;;;6.80;;
6023;SDS011;3040;42.654;23.296;2023-06-22T10:43:31;10.07;;;8.60;;
6023;SDS011;3040;42.654;23.296;2023-06-22T10:45:58;10.30;;;9.60;;
6023;SDS011;3040;42.654;23.296;2023-06-22T10:48:25;8.60;;;8.20;;
6023;SDS011;3040;42.654;23.296;2023-06-22T10:50:52;8.82;;;8.38;;
6023;SDS011;3040;42.654;23.296;2023-06-22T10:53:19;8.38;;;7.90;;
6023;SDS011;3040;42.654;23.296;2023-06-22T10:55:46;9.55;;;8.88;;
6023;SDS011;3040;42.654;23.296;2023-06-22T10:58:15;8.50;;;8.10;;
6023;SDS011;3040;42.654;23.296;2023-06-22T11:00:42;8.65;;;8.07;;
6023;SDS011;3040;42.654;23.296;2023-06-22T11:03:08;9.00;;;8.10;;
6023;SDS011;3040;42.654;23.296;2023-06-22T11:05:35;8.03;;;7.53;;
6023;SDS011;3040;42.654;23.296;2023-06-22T11:08:02;8.80;;;8.40;;
6023;SDS011;3040;42.654;23.296;2023-06-22T11:10:29;9.50;;;8.67;;
6023;SDS011;3040;42.654;23.296;2023-06-22T11:12:56;8.57;;;8.07;;
6023;SDS011;3040;42.654;23.296;2023-06-22T11:15:24;9.47;;;8.77;;
6023;SDS011;3040;42.654;23.296;2023-06-22T11:17:51;8.97;;;8.37;;
6023;SDS011;3040;42.654;23.296;2023-06-22T11:20:18;8.50;;;8.00;;
6023;SDS011;3040;42.654;23.296;2023-06-22T11:22:44;9.23;;;8.77;;
6023;SDS011;3040;42.654;23.296;2023-06-22T11:25:11;8.87;;;8.47;;
6023;SDS011;3040;42.654;23.296;2023-06-22T11:27:38;8.37;;;8.00;;
6023;SDS011;3040;42.654;23.296;2023-06-22T11:30:06;9.67;;;8.90;;
6023;SDS011;3040;42.654;23.296;2023-06-22T11:32:35;9.07;;;8.68;;
6023;SDS011;3040;42.654;23.296;2023-06-22T11:35:02;9.17;;;8.43;;
6023;SDS011;3040;42.654;23.296;2023-06-22T11:37:28;8.30;;;7.80;;
6023;SDS011;3040;42.654;23.296;2023-06-22T11:39:55;8.20;;;7.90;;
6023;SDS011;3040;42.654;23.296;2023-06-22T11:42:23;8.30;;;7.70;;
6023;SDS011;3040;42.654;23.296;2023-06-22T11:44:50;8.60;;;7.97;;
6023;SDS011;3040;42.654;23.296;2023-06-22T11:47:17;9.47;;;8.77;;
6023;SDS011;3040;42.654;23.296;2023-06-22T11:49:45;9.30;;;8.70;;
6023;SDS011;3040;42.654;23.296;2023-06-22T11:52:12;8.63;;;8.23;;
6023;SDS011;3040;42.654;23.296;2023-06-22T11:54:39;11.90;;;8.90;;
6023;SDS011;3040;42.654;23.296;2023-06-22T11:57:06;10.17;;;9.33;;
6023;SDS011;3040;42.654;23.296;2023-06-22T11:59:33;9.40;;;8.73;;
6023;SDS011;3040;42.654;23.296;2023-06-22T12:02:00;9.00;;;8.50;;
6023;SDS011;3040;42.654;23.296;2023-06-22T12:04:26;9.83;;;9.07;;
6023;SDS011;3040;42.654;23.296;2023-06-22T12:06:55;32.00;;;9.67;;
6023;SDS011;3040;42.654;23.296;2023-06-22T12:09:21;10.57;;;9.60;;
6023;SDS011;3040;42.654;23.296;2023-06-22T12:11:48;9.97;;;9.23;;
6023;SDS011;3040;42.654;23.296;2023-06-22T12:14:15;9.60;;;8.73;;
6023;SDS011;3040;42.654;23.296;2023-06-22T12:16:42;10.37;;;9.37;;
6023;SDS011;3040;42.654;23.296;2023-06-22T12:19:09;10.20;;;9.30;;
6023;SDS011;3040;42.654;23.296;2023-06-22T12:21:37;12.13;;;9.67;;
6023;SDS011;3040;42.654;23.296;2023-06-22T12:24:06;11.87;;;9.47;;
6023;SDS011;3040;42.654;23.296;2023-06-22T12:26:32;10.50;;;9.70;;
6023;SDS011;3040;42.654;23.296;2023-06-22T12:28:59;11.90;;;10.77;;
6023;SDS011;3040;42.654;23.296;2023-06-22T12:31:26;14.20;;;10.53;;
6023;SDS011;3040;42.654;23.296;2023-06-22T12:33:53;10.80;;;10.10;;
6023;SDS011;3040;42.654;23.296;2023-06-22T12:36:20;9.27;;;8.63;;
6023;SDS011;3040;42.654;23.296;2023-06-22T12:38:46;10.20;;;9.30;;
6023;SDS011;3040;42.654;23.296;2023-06-22T12:41:15;10.77;;;9.93;;
6023;SDS011;3040;42.654;23.296;2023-06-22T12:43:41;11.47;;;10.00;;
6023;SDS011;3040;42.654;23.296;2023-06-22T12:46:08;16.63;;;10.10;;
6023;SDS011;3040;42.654;23.296;2023-06-22T12:48:36;10.80;;;9.77;;
6023;SDS011;3040;42.654;23.296;2023-06-22T12:51:06;9.80;;;8.93;;
6023;SDS011;3040;42.654;23.296;2023-06-22T12:53:33;8.97;;;8.53;;
6023;SDS011;3040;42.654;23.296;2023-06-22T12:56:00;8.83;;;8.07;;
6023;SDS011;3040;42.654;23.296;2023-06-22T12:58:28;9.73;;;8.37;;
6023;SDS011;3040;42.654;23.296;2023-06-22T13:00:55;10.30;;;9.30;;
6023;SDS011;3040;42.654;23.296;2023-06-22T13:03:22;8.67;;;8.10;;
6023;SDS011;3040;42.654;23.296;2023-06-22T13:05:51;9.33;;;8.37;;
6023;SDS011;3040;42.654;23.296;2023-06-22T13:08:17;9.97;;;8.97;;
6023;SDS011;3040;42.654;23.296;2023-06-22T13:10:44;9.17;;;8.77;;
6023;SDS011;3040;42.654;23.296;2023-06-22T13:13:11;9.77;;;9.13;;
6023;SDS011;3040;42.654;23.296;2023-06-22T13:15:40;9.27;;;8.77;;
6023;SDS011;3040;42.654;23.296;2023-06-22T13:18:06;12.30;;;8.93;;
6023;SDS011;3040;42.654;23.296;2023-06-22T13:20:33;10.07;;;9.43;;
6023;SDS011;3040;42.654;23.296;2023-06-22T13:23:00;9.83;;;9.07;;
6023;SDS011;3040;42.654;23.296;2023-06-22T13:25:27;9.43;;;8.97;;
6023;SDS011;3040;42.654;23.296;2023-06-22T13:27:54;9.43;;;8.90;;
6023;SDS011;3040;42.654;23.296;2023-06-22T13:30:20;9.50;;;9.00;;
6023;SDS011;3040;42.654;23.296;2023-06-22T13:32:49;9.37;;;8.73;;
6023;SDS011;3040;42.654;23.296;2023-06-22T13:35:15;9.03;;;8.17;;
6023;SDS011;3040;42.654;23.296;2023-06-22T13:37:42;9.23;;;8.63;;
6023;SDS011;3040;42.654;23.296;2023-06-22T13:40:09;9.63;;;8.80;;
6023;SDS011;3040;42.654;23.296;2023-06-22T13:42:36;10.70;;;9.90;;
6023;SDS011;3040;42.654;23.296;2023-06-22T13:45:03;10.83;;;10.03;;
6023;SDS011;3040;42.654;23.296;2023-06-22T13:47:30;10.27;;;9.47;;
6023;SDS011;3040;42.654;23.296;2023-06-22T13:49:59;9.97;;;9.13;;
6023;SDS011;3040;42.654;23.296;2023-06-22T13:52:25;10.50;;;9.83;;
6023;SDS011;3040;42.654;23.296;2023-06-22T13:54:52;15.03;;;10.17;;
6023;SDS011;3040;42.654;23.296;2023-06-22T13:57:19;9.90;;;8.87;;
6023;SDS011;3040;42.654;23.296;2023-06-22T13:59:46;8.43;;;7.80;;
6023;SDS011;3040;42.654;23.296;2023-06-22T14:02:12;8.93;;;8.47;;
6023;SDS011;3040;42.654;23.296;2023-06-22T14:04:39;11.47;;;9.23;;
6023;SDS011;3040;42.654;23.296;2023-06-22T14:07:08;34.70;;;11.43;;
6023;SDS011;3040;42.654;23.296;2023-06-22T14:09:34;15.10;;;8.13;;
6023;SDS011;3040;42.654;23.296;2023-06-22T14:12:05;8.20;;;7.57;;
6023;SDS011;3040;42.654;23.296;2023-06-22T14:14:32;9.37;;;8.40;;
6023;SDS011;3040;42.654;23.296;2023-06-22T14:16:59;8.40;;;7.80;;
6023;SDS011;3040;42.654;23.296;2023-06-22T14:19:26;9.33;;;8.13;;
6023;SDS011;3040;42.654;23.296;2023-06-22T14:21:52;11.87;;;7.90;;
6023;SDS011;3040;42.654;23.296;2023-06-22T14:24:21;11.00;;;8.47;;
6023;SDS011;3040;42.654;23.296;2023-06-22T14:26:47;10.53;;;7.80;;
6023;SDS011;3040;42.654;23.296;2023-06-22T14:29:14;11.40;;;7.80;;
6023;SDS011;3040;42.654;23.296;2023-06-22T14:31:44;8.37;;;7.57;;
6023;SDS011;3040;42.654;23.296;2023-06-22T14:34:11;8.87;;;8.13;;
6023;SDS011;3040;42.654;23.296;2023-06-22T14:36:38;8.87;;;8.17;;
6023;SDS011;3040;42.654;23.296;2023-06-22T14:39:05;8.53;;;8.03;;
6023;SDS011;3040;42.654;23.296;2023-06-22T14:41:33;8.20;;;7.70;;
6023;SDS011;3040;42.654;23.296;2023-06-22T14:44:00;9.07;;;8.20;;
6023;SDS011;3040;42.654;23.296;2023-06-22T14:46:27;10.27;;;8.13;;
6023;SDS011;3040;42.654;23.296;2023-06-22T14:48:54;9.40;;;8.63;;
6023;SDS011;3040;42.654;23.296;2023-06-22T14:51:21;15.03;;;8.93;;